Terminal Aerodrome Forecast
Issued by NWS Spokane, WA

Home | Current Version | Previous Version | Text Only | Print | Product List | Glossary On
Versions: 1 2 3 4 5 6 7 8 9 10 11 12 13 14
000
FTUS46 KOTX 291120
TAFEAT
TAF
KEAT 291120Z 2912/3012 33007KT P6SM SCT080 BKN120
     FM291500 30015KT P6SM OVC100
     FM292200 31018G22KT P6SM FEW080 SCT120
     FM300400 30011KT P6SM SCT150=

USA.gov is the U.S. government's official web portal to all federal, state and local government web resources and services.